Time;durP1;ratioP1;P1;durP2;ratioP2;P2;SDS_P1;SDS_P2;PMS_P1;PMS_P2;Temp;Humidity;BMP_temperature;BMP_pressure;BME280_temperature;BME280_humidity;BME280_pressure;Samples;Min_cycle;Max_cycle;Signal;HPM_P1;HPM_P2
2021/12/21 16:36:36;;;;;;;7.35;3.47;;;;;;;;;;5082462;27;1376547;-65
2021/12/21 16:39:03;;;;;;;12.00;3.30;;;;;;;;;;5113715;28;20039;-65
2021/12/21 16:41:29;;;;;;;12.45;3.40;;;;;;;;;;5103555;28;20028;-64
2021/12/21 16:44:00;;;;;;;10.50;3.55;;;;;;;;;;5107135;28;20028;-65
2021/12/21 16:46:26;;;;;;;10.50;4.07;;;;;;;;;;5106885;28;20035;-63
2021/12/21 16:48:54;;;;;;;13.52;4.47;;;;;;;;;;5088613;28;20034;-66
2021/12/21 16:51:22;;;;;;;7.13;3.65;;;;;;;;;;5106459;28;20027;-64
2021/12/21 16:53:51;;;;;;;11.23;3.65;;;;;;;;;;5106867;28;20067;-63
2021/12/21 16:56:18;;;;;;;14.10;3.92;;;;;;;;;;5087954;28;20034;-65
2021/12/21 16:58:44;;;;;;;13.90;6.50;;;;;;;;;;5111586;28;20521;-64
2021/12/21 17:01:10;;;;;;;25.42;11.25;;;;;;;;;;5119617;28;20023;-65
2021/12/21 17:03:37;;;;;;;17.15;6.28;;;;;;;;;;5107329;28;20027;-65
2021/12/21 17:06:06;;;;;;;18.27;8.15;;;;;;;;;;5105270;28;20378;-64
2021/12/21 17:08:39;;;;;;;11.55;5.72;;;;;;;;;;5105383;28;20032;-63
2021/12/21 17:11:05;;;;;;;13.40;6.45;;;;;;;;;;5093890;28;20023;-64
2021/12/21 17:13:32;;;;;;;14.25;4.55;;;;;;;;;;5108179;28;20028;-63
2021/12/21 17:15:58;;;;;;;12.55;4.45;;;;;;;;;;5113933;28;20028;-64
2021/12/21 17:18:24;;;;;;;12.40;4.07;;;;;;;;;;5106199;28;20059;-64
2021/12/21 17:20:50;;;;;;;10.60;4.85;;;;;;;;;;5106258;28;20043;-64
2021/12/21 17:23:16;;;;;;;16.60;5.63;;;;;;;;;;5107153;28;20026;-64
2021/12/21 17:25:42;;;;;;;18.23;6.10;;;;;;;;;;5106575;28;20024;-63
2021/12/21 17:28:08;;;;;;;15.85;7.40;;;;;;;;;;5121026;28;20114;-62
2021/12/21 17:30:35;;;;;;;18.20;5.70;;;;;;;;;;5114160;28;20051;-65
2021/12/21 17:33:01;;;;;;;12.65;5.72;;;;;;;;;;5116984;28;20035;-63
2021/12/21 17:35:27;;;;;;;16.38;6.10;;;;;;;;;;5114348;28;20224;-64
2021/12/21 17:37:59;;;;;;;17.08;5.50;;;;;;;;;;5106935;28;20494;-64
2021/12/21 17:40:25;;;;;;;11.85;5.40;;;;;;;;;;5116572;28;20038;-63
2021/12/21 17:42:51;;;;;;;14.07;4.85;;;;;;;;;;5106439;28;20489;-63
2021/12/21 17:45:17;;;;;;;12.75;4.50;;;;;;;;;;5115795;28;20024;-66
2021/12/21 17:47:43;;;;;;;12.93;5.20;;;;;;;;;;5101271;28;20437;-66
2021/12/21 17:50:10;;;;;;;23.20;8.10;;;;;;;;;;5101864;28;20027;-64
2021/12/21 17:52:37;;;;;;;12.30;5.38;;;;;;;;;;5096062;28;20024;-65
2021/12/21 17:55:03;;;;;;;16.60;5.30;;;;;;;;;;5095555;28;20501;-64
2021/12/21 17:57:29;;;;;;;11.07;5.70;;;;;;;;;;5093354;28;20024;-66
2021/12/21 17:59:55;;;;;;;15.32;6.38;;;;;;;;;;5092522;28;20447;-66
2021/12/21 18:02:23;;;;;;;15.57;6.25;;;;;;;;;;5087205;28;20104;-66
2021/12/21 18:04:49;;;;;;;23.52;7.18;;;;;;;;;;5098181;28;20016;-66
2021/12/21 18:07:15;;;;;;;11.27;5.45;;;;;;;;;;5077772;28;20020;-65
2021/12/21 18:09:41;;;;;;;10.40;5.78;;;;;;;;;;5098599;28;20103;-64
2021/12/21 18:12:07;;;;;;;17.73;6.75;;;;;;;;;;5097390;28;20035;-65
2021/12/21 18:14:33;;;;;;;15.25;6.32;;;;;;;;;;5090875;28;20051;-65
2021/12/21 18:17:00;;;;;;;14.82;5.93;;;;;;;;;;5093785;28;20050;-65
2021/12/21 18:19:26;;;;;;;13.07;5.63;;;;;;;;;;5102413;28;20038;-64
2021/12/21 18:21:52;;;;;;;8.73;5.85;;;;;;;;;;5103185;28;20019;-65
2021/12/21 18:24:18;;;;;;;22.33;6.50;;;;;;;;;;5101703;28;20024;-64
2021/12/21 18:26:44;;;;;;;14.80;6.15;;;;;;;;;;5098085;28;20024;-64
2021/12/21 18:29:11;;;;;;;14.88;6.47;;;;;;;;;;5085586;28;20363;-65
2021/12/21 18:31:37;;;;;;;17.77;7.15;;;;;;;;;;5092054;28;20099;-65
2021/12/21 18:34:03;;;;;;;19.25;9.27;;;;;;;;;;5097037;28;20533;-64
2021/12/21 18:36:30;;;;;;;15.57;6.15;;;;;;;;;;5095929;28;20036;-65
2021/12/21 18:38:57;;;;;;;20.10;5.88;;;;;;;;;;5101689;28;20020;-64
2021/12/21 18:41:23;;;;;;;17.98;6.63;;;;;;;;;;5101068;28;20034;-65
2021/12/21 18:43:49;;;;;;;11.55;5.15;;;;;;;;;;5100737;28;20099;-65
2021/12/21 18:46:15;;;;;;;14.57;6.60;;;;;;;;;;5099102;28;20077;-65
2021/12/21 18:48:49;;;;;;;17.90;7.43;;;;;;;;;;5101965;28;20102;-64
2021/12/21 18:51:21;;;;;;;13.95;7.60;;;;;;;;;;5099684;28;20050;-65
2021/12/21 18:53:47;;;;;;;21.87;8.07;;;;;;;;;;5080388;28;20491;-64
2021/12/21 18:56:13;;;;;;;24.92;8.93;;;;;;;;;;5069619;28;20106;-64
2021/12/21 18:58:39;;;;;;;14.38;6.97;;;;;;;;;;5089931;28;20027;-64
2021/12/21 19:01:07;;;;;;;15.77;6.90;;;;;;;;;;5073342;28;20391;-64
2021/12/21 19:03:34;;;;;;;20.13;8.27;;;;;;;;;;5091089;28;20020;-64
2021/12/21 19:06:00;;;;;;;12.80;7.63;;;;;;;;;;5090420;28;20099;-63
2021/12/21 19:08:26;;;;;;;20.33;7.88;;;;;;;;;;5078829;28;20016;-64
2021/12/21 19:10:53;;;;;;;16.90;6.13;;;;;;;;;;5073192;28;20371;-63
2021/12/21 19:13:19;;;;;;;9.40;5.80;;;;;;;;;;5096422;28;20092;-64
2021/12/21 19:15:45;;;;;;;19.50;6.68;;;;;;;;;;5074285;28;20025;-64
2021/12/21 19:18:11;;;;;;;15.23;5.68;;;;;;;;;;5070879;28;20024;-63
2021/12/21 19:20:40;;;;;;;13.63;4.85;;;;;;;;;;5070687;28;20467;-64
2021/12/21 19:23:07;;;;;;;10.73;4.65;;;;;;;;;;5080397;28;20027;-63
2021/12/21 19:25:33;;;;;;;16.02;6.03;;;;;;;;;;5090759;28;20028;-64
2021/12/21 19:27:59;;;;;;;15.10;7.03;;;;;;;;;;5079182;28;20095;-64
2021/12/21 19:30:26;;;;;;;18.00;10.15;;;;;;;;;;5069900;28;20609;-65
2021/12/21 19:32:52;;;;;;;22.15;9.38;;;;;;;;;;5088165;28;20390;-65
2021/12/21 19:35:18;;;;;;;13.57;6.07;;;;;;;;;;5078786;28;20132;-64
2021/12/21 19:37:44;;;;;;;13.73;5.95;;;;;;;;;;5074127;28;20080;-64
2021/12/21 19:40:11;;;;;;;14.52;5.53;;;;;;;;;;5091334;28;20038;-64
2021/12/21 19:42:37;;;;;;;11.43;4.55;;;;;;;;;;5092308;28;20034;-63
2021/12/21 19:45:03;;;;;;;13.32;5.72;;;;;;;;;;5101711;28;20031;-64
2021/12/21 19:47:30;;;;;;;14.38;5.05;;;;;;;;;;5100833;28;20031;-64
2021/12/21 19:49:56;;;;;;;11.15;5.57;;;;;;;;;;5097067;28;20032;-64
2021/12/21 19:52:22;;;;;;;17.73;5.45;;;;;;;;;;5089898;28;20081;-65
2021/12/21 19:54:48;;;;;;;14.77;4.78;;;;;;;;;;5090125;28;20107;-65
2021/12/21 19:57:14;;;;;;;14.00;5.53;;;;;;;;;;5088695;28;20115;-63
2021/12/21 19:59:40;;;;;;;10.45;4.60;;;;;;;;;;5089707;28;20028;-65
2021/12/21 20:02:06;;;;;;;15.77;5.00;;;;;;;;;;5090142;28;20035;-66
2021/12/21 20:04:32;;;;;;;18.13;7.53;;;;;;;;;;5091862;28;20071;-63
2021/12/21 20:06:58;;;;;;;15.88;6.72;;;;;;;;;;5069903;28;20024;-64
2021/12/21 20:09:25;;;;;;;14.15;5.43;;;;;;;;;;5071815;28;20032;-63
2021/12/21 20:11:57;;;;;;;10.15;4.75;;;;;;;;;;5091221;28;20024;-64
2021/12/21 20:14:23;;;;;;;14.98;5.20;;;;;;;;;;5071035;28;20483;-64
2021/12/21 20:16:50;;;;;;;16.27;6.10;;;;;;;;;;5090952;28;20039;-63
2021/12/21 20:19:16;;;;;;;11.07;5.03;;;;;;;;;;5090008;28;20428;-65
2021/12/21 20:21:42;;;;;;;13.45;5.80;;;;;;;;;;5075850;28;20024;-64
2021/12/21 20:24:08;;;;;;;13.65;5.97;;;;;;;;;;5069380;28;20056;-64
2021/12/21 20:26:35;;;;;;;12.50;6.15;;;;;;;;;;5091155;28;20562;-64
2021/12/21 20:29:02;;;;;;;10.40;4.70;;;;;;;;;;5088986;28;20040;-64
2021/12/21 20:31:28;;;;;;;11.40;4.95;;;;;;;;;;5082494;28;20032;-63
2021/12/21 20:33:54;;;;;;;14.25;5.53;;;;;;;;;;5071531;28;20111;-63
2021/12/21 20:36:20;;;;;;;17.55;6.85;;;;;;;;;;5078950;28;20041;-64
2021/12/21 20:38:46;;;;;;;22.15;7.95;;;;;;;;;;5089331;28;20028;-64
2021/12/21 20:41:13;;;;;;;17.92;7.93;;;;;;;;;;5090677;28;20456;-64
2021/12/21 20:43:39;;;;;;;17.08;6.03;;;;;;;;;;5089267;28;20028;-64
2021/12/21 20:46:05;;;;;;;17.15;6.15;;;;;;;;;;5089654;28;20089;-64
2021/12/21 20:48:31;;;;;;;14.18;5.78;;;;;;;;;;5090634;28;20062;-64
2021/12/21 20:50:58;;;;;;;21.17;7.60;;;;;;;;;;5072453;28;20035;-64
2021/12/21 20:53:24;;;;;;;18.65;6.82;;;;;;;;;;5054615;28;20467;-63
2021/12/21 20:55:50;;;;;;;12.63;6.22;;;;;;;;;;5090456;28;20027;-64
2021/12/21 20:58:16;;;;;;;20.48;6.38;;;;;;;;;;5098515;28;20027;-63
2021/12/21 21:00:44;;;;;;;15.52;7.07;;;;;;;;;;5109973;28;20034;-64
2021/12/21 21:03:10;;;;;;;18.10;7.35;;;;;;;;;;5109842;28;20152;-64
2021/12/21 21:05:36;;;;;;;17.80;6.35;;;;;;;;;;5091932;28;20027;-65
2021/12/21 21:08:04;;;;;;;18.15;6.95;;;;;;;;;;5089807;28;20027;-64
2021/12/21 21:10:31;;;;;;;20.10;8.40;;;;;;;;;;5088746;28;20040;-64
2021/12/21 21:12:57;;;;;;;15.23;8.02;;;;;;;;;;5081467;28;20058;-66
2021/12/21 21:15:23;;;;;;;20.63;8.80;;;;;;;;;;5096714;28;20019;-64
2021/12/21 21:17:51;;;;;;;22.30;8.27;;;;;;;;;;5089525;28;20463;-65
2021/12/21 21:20:17;;;;;;;22.00;7.60;;;;;;;;;;5079546;28;20027;-64
2021/12/21 21:22:44;;;;;;;16.83;7.93;;;;;;;;;;5096420;28;20032;-65
2021/12/21 21:25:11;;;;;;;18.30;7.70;;;;;;;;;;5093211;28;20051;-64
2021/12/21 21:27:37;;;;;;;21.67;7.93;;;;;;;;;;5086421;28;20604;-64
2021/12/21 21:30:04;;;;;;;22.05;9.35;;;;;;;;;;5092541;28;20107;-64
2021/12/21 21:32:30;;;;;;;21.92;9.52;;;;;;;;;;5092817;28;20459;-64
2021/12/21 21:34:56;;;;;;;18.60;8.27;;;;;;;;;;5074504;28;20082;-65
2021/12/21 21:37:22;;;;;;;24.42;8.57;;;;;;;;;;5092984;28;20176;-64
2021/12/21 21:39:48;;;;;;;20.05;8.85;;;;;;;;;;5095310;28;20031;-64
2021/12/21 21:42:14;;;;;;;15.60;7.10;;;;;;;;;;5112523;28;20022;-65
2021/12/21 21:44:40;;;;;;;19.00;8.50;;;;;;;;;;5113475;28;20447;-64
2021/12/21 21:47:06;;;;;;;23.77;8.73;;;;;;;;;;5113178;28;20520;-64
2021/12/21 21:49:33;;;;;;;22.08;8.68;;;;;;;;;;5111177;28;20036;-64
2021/12/21 21:51:59;;;;;;;24.60;9.10;;;;;;;;;;5101627;28;20031;-66
2021/12/21 21:54:25;;;;;;;21.27;8.77;;;;;;;;;;5097900;28;20040;-65
2021/12/21 21:56:51;;;;;;;17.25;9.45;;;;;;;;;;5092048;28;20020;-64
2021/12/21 21:59:17;;;;;;;20.48;9.13;;;;;;;;;;5092295;28;20016;-64
2021/12/21 22:01:46;;;;;;;25.45;11.25;;;;;;;;;;5092216;28;20103;-65
2021/12/21 22:04:13;;;;;;;26.05;11.43;;;;;;;;;;5092076;28;20028;-65
2021/12/21 22:06:39;;;;;;;26.10;11.45;;;;;;;;;;5092916;28;20437;-64
2021/12/21 22:09:05;;;;;;;27.85;11.95;;;;;;;;;;5090002;28;20015;-64
2021/12/21 22:11:32;;;;;;;24.25;10.68;;;;;;;;;;5070598;28;20032;-64
2021/12/21 22:13:59;;;;;;;41.17;15.90;;;;;;;;;;5092080;28;20119;-64
2021/12/21 22:16:25;;;;;;;30.65;13.73;;;;;;;;;;5071658;28;20035;-65
2021/12/21 22:18:51;;;;;;;32.03;12.90;;;;;;;;;;5074183;28;20055;-65
2021/12/21 22:21:17;;;;;;;25.67;10.50;;;;;;;;;;5102009;28;20520;-65
2021/12/21 22:23:47;;;;;;;20.65;10.05;;;;;;;;;;5092107;28;20382;-65
2021/12/21 22:26:14;;;;;;;30.45;12.50;;;;;;;;;;5092479;28;20454;-66
2021/12/21 22:28:40;;;;;;;28.83;13.82;;;;;;;;;;5091797;28;20024;-65
2021/12/21 22:31:07;;;;;;;25.42;11.32;;;;;;;;;;5082194;28;20074;-64
2021/12/21 22:33:33;;;;;;;28.35;9.98;;;;;;;;;;5078235;28;20038;-64
2021/12/21 22:35:59;;;;;;;17.95;8.60;;;;;;;;;;5069793;28;20478;-65
2021/12/21 22:38:26;;;;;;;25.23;10.50;;;;;;;;;;5071317;28;20028;-64
2021/12/21 22:40:52;;;;;;;22.73;9.15;;;;;;;;;;5070087;28;20032;-64
2021/12/21 22:43:18;;;;;;;18.70;8.40;;;;;;;;;;5070724;28;20025;-64
2021/12/21 22:45:44;;;;;;;23.88;7.68;;;;;;;;;;5070935;28;20151;-65
2021/12/21 22:48:10;;;;;;;17.45;6.63;;;;;;;;;;5066224;28;20032;-64
2021/12/21 22:50:37;;;;;;;17.30;6.47;;;;;;;;;;5069393;28;20085;-64
2021/12/21 22:53:04;;;;;;;18.42;6.35;;;;;;;;;;5069746;28;20025;-64
2021/12/21 22:55:30;;;;;;;17.23;6.13;;;;;;;;;;5070923;28;20070;-64
2021/12/21 22:57:56;;;;;;;18.17;7.13;;;;;;;;;;5070930;28;20480;-65
2021/12/21 23:00:22;;;;;;;20.98;6.90;;;;;;;;;;5071151;28;20020;-64
2021/12/21 23:02:49;;;;;;;17.00;7.55;;;;;;;;;;5051986;28;20055;-64
2021/12/21 23:05:15;;;;;;;15.95;7.15;;;;;;;;;;5050895;28;20044;-63
2021/12/21 23:07:41;;;;;;;18.70;7.28;;;;;;;;;;5049304;28;20361;-64
2021/12/21 23:10:07;;;;;;;16.80;7.22;;;;;;;;;;5050609;28;20047;-63
2021/12/21 23:12:33;;;;;;;18.08;6.45;;;;;;;;;;5050238;28;20557;-63
2021/12/21 23:15:02;;;;;;;17.27;7.80;;;;;;;;;;5050906;28;20033;-63
2021/12/21 23:17:28;;;;;;;18.38;7.18;;;;;;;;;;5050678;28;20048;-63
2021/12/21 23:19:54;;;;;;;14.68;6.28;;;;;;;;;;5053856;28;20024;-63
